Time;durP1;ratioP1;P1;durP2;ratioP2;P2;SDS_P1;SDS_P2;PMS_P1;PMS_P2;Temp;Humidity;BMP_temperature;BMP_pressure;BME280_temperature;BME280_humidity;BME280_pressure;Samples;Min_cycle;Max_cycle;Signal;HPM_P1;HPM_P2
2024/01/30 04:56:05;;;;;;;;;;;-2.00;99.90;;;;;;5567431;22;19931;-75
2024/01/30 04:58:31;;;;;;;;;;;-2.20;99.90;;;;;;5054788;28;19924;-75
2024/01/30 05:00:58;;;;;;;;;;;-2.00;99.90;;;;;;5054732;28;19924;-75
2024/01/30 05:03:25;;;;;;;;;;;-2.10;99.90;;;;;;5055410;28;19936;-75
2024/01/30 05:05:51;;;;;;;;;;;-2.10;99.90;;;;;;5054652;28;19929;-75
2024/01/30 05:08:18;;;;;;;;;;;-2.10;99.90;;;;;;5054671;28;19925;-75
2024/01/30 05:10:44;;;;;;;;;;;-2.10;99.90;;;;;;5054770;28;19928;-75
2024/01/30 05:13:13;;;;;;;;;;;-2.10;99.90;;;;;;5054487;28;19932;-75
2024/01/30 05:15:40;;;;;;;;;;;-2.10;99.90;;;;;;5054296;28;19924;-75
2024/01/30 05:18:06;;;;;;;;;;;-2.10;99.90;;;;;;5054477;28;19948;-75
2024/01/30 05:20:33;;;;;;;;;;;-1.90;99.90;;;;;;5054927;28;19924;-75
2024/01/30 05:22:59;;;;;;;;;;;-2.20;99.90;;;;;;5054062;28;19947;-75
2024/01/30 05:25:26;;;;;;;;;;;-2.20;99.90;;;;;;5053924;28;19974;-75
2024/01/30 05:27:52;;;;;;;;;;;-2.20;99.90;;;;;;5054168;28;19932;-76
2024/01/30 05:30:20;;;;;;;;;;;-2.20;99.90;;;;;;5054541;28;20305;-76
2024/01/30 05:32:47;;;;;;;;;;;-2.20;99.90;;;;;;5054031;28;19964;-76
2024/01/30 05:35:14;;;;;;;;;;;-2.20;99.90;;;;;;5053904;28;19925;-76
2024/01/30 05:37:40;;;;;;;;;;;-2.20;99.90;;;;;;5053893;28;20015;-76
2024/01/30 05:40:07;;;;;;;;;;;-2.20;99.90;;;;;;5053923;28;20294;-76
2024/01/30 05:42:34;;;;;;;;;;;-2.20;99.90;;;;;;5054733;28;19975;-77
2024/01/30 05:45:00;;;;;;;;;;;-2.20;99.90;;;;;;5054023;28;19932;-75
2024/01/30 05:47:28;;;;;;;;;;;-2.30;99.90;;;;;;5053929;28;20038;-77
2024/01/30 05:49:55;;;;;;;;;;;-2.30;99.90;;;;;;5053594;28;20274;-76
2024/01/30 05:52:21;;;;;;;;;;;-2.30;99.90;;;;;;5053791;28;19925;-76
2024/01/30 05:54:48;;;;;;;;;;;-2.30;99.90;;;;;;5053795;28;19925;-76
2024/01/30 05:57:14;;;;;;;;;;;-2.30;99.90;;;;;;5053298;28;20055;-76
2024/01/30 05:59:41;;;;;;;;;;;-2.30;99.90;;;;;;5053737;28;19925;-77
2024/01/30 06:02:07;;;;;;;;;;;-2.20;99.90;;;;;;5053924;28;19924;-74
2024/01/30 06:04:35;;;;;;;;;;;-2.20;99.90;;;;;;5054309;28;19925;-76
2024/01/30 06:07:02;;;;;;;;;;;-2.10;99.90;;;;;;5053196;28;20399;-76
2024/01/30 06:09:29;;;;;;;;;;;-2.10;99.90;;;;;;5053329;28;19956;-76
2024/01/30 06:11:56;;;;;;;;;;;-2.10;99.90;;;;;;5053526;28;20012;-76
2024/01/30 06:14:22;;;;;;;;;;;-2.10;99.90;;;;;;5053209;28;20378;-76
2024/01/30 06:16:49;;;;;;;;;;;-2.10;99.90;;;;;;5053924;28;19929;-76
2024/01/30 06:19:15;;;;;;;;;;;-2.10;99.90;;;;;;5057528;28;19924;-76
2024/01/30 06:21:43;;;;;;;;;;;-2.10;99.90;;;;;;5057903;28;19932;-76
2024/01/30 06:24:10;;;;;;;;;;;-2.10;99.90;;;;;;5057687;28;19928;-76
2024/01/30 06:26:36;;;;;;;;;;;-2.10;99.90;;;;;;5057315;28;19936;-76
2024/01/30 06:29:03;;;;;;;;;;;-2.10;99.90;;;;;;5057519;28;19929;-77
2024/01/30 06:31:29;;;;;;;;;;;-2.10;99.90;;;;;;5058816;28;19925;-78
2024/01/30 06:33:56;;;;;;;;;;;-2.10;99.90;;;;;;5057061;28;20356;-75
2024/01/30 06:36:22;;;;;;;;;;;-2.10;99.90;;;;;;5057455;28;19924;-75
2024/01/30 06:38:50;;;;;;;;;;;-2.10;99.90;;;;;;5057337;28;19931;-76
2024/01/30 06:41:17;;;;;;;;;;;-2.10;99.90;;;;;;5057364;28;19925;-76
2024/01/30 06:43:45;;;;;;;;;;;-2.10;99.90;;;;;;5056937;28;20301;-75
2024/01/30 06:46:11;;;;;;;;;;;-2.10;99.90;;;;;;5057099;28;19924;-75
2024/01/30 06:48:40;;;;;;;;;;;-2.00;99.90;;;;;;5057104;28;19925;-75
2024/01/30 06:51:06;;;;;;;;;;;-2.10;99.90;;;;;;5058063;28;19986;-76
2024/01/30 06:53:33;;;;;;;;;;;-2.00;99.90;;;;;;5057255;28;19931;-76
2024/01/30 06:56:01;;;;;;;;;;;-2.00;99.90;;;;;;5056692;28;20043;-75
2024/01/30 06:58:27;;;;;;;;;;;-2.00;99.90;;;;;;5056937;28;19925;-76
2024/01/30 07:00:54;;;;;;;;;;;-2.00;99.90;;;;;;5057053;28;19925;-75
2024/01/30 07:03:21;;;;;;;;;;;-2.00;99.90;;;;;;5057157;28;20015;-75
2024/01/30 07:05:48;;;;;;;;;;;-1.90;99.90;;;;;;5056946;28;19932;-75
2024/01/30 07:08:17;;;;;;;;;;;-1.90;99.90;;;;;;5056819;28;19932;-75
2024/01/30 07:10:43;;;;;;;;;;;-1.80;99.90;;;;;;5056770;28;19975;-75
2024/01/30 07:13:11;;;;;;;;;;;-1.80;99.90;;;;;;5056550;28;19932;-76
2024/01/30 07:15:41;;;;;;;;;;;-1.70;99.90;;;;;;5056371;28;19925;-75
2024/01/30 07:18:07;;;;;;;;;;;-1.60;99.90;;;;;;5057270;28;19925;-76
2024/01/30 07:20:35;;;;;;;;;;;-1.60;99.90;;;;;;5056619;28;19924;-75
2024/01/30 07:23:02;;;;;;;;;;;-1.50;99.90;;;;;;5056810;28;19928;-75
2024/01/30 07:25:29;;;;;;;;;;;-1.40;99.90;;;;;;5057131;28;19976;-75
2024/01/30 07:27:56;;;;;;;;;;;-1.30;99.90;;;;;;5056026;28;20329;-74
2024/01/30 07:30:24;;;;;;;;;;;-1.20;99.90;;;;;;5056151;28;20382;-75
2024/01/30 07:32:50;;;;;;;;;;;-1.10;99.90;;;;;;5056267;28;19975;-75
2024/01/30 07:35:17;;;;;;;;;;;-1.00;99.90;;;;;;5056602;28;19929;-75
2024/01/30 07:37:43;;;;;;;;;;;-0.90;99.90;;;;;;5056521;28;19924;-74
2024/01/30 07:40:10;;;;;;;;;;;-0.70;99.90;;;;;;5056495;28;19925;-75
2024/01/30 07:42:37;;;;;;;;;;;-0.60;99.90;;;;;;5056030;28;20421;-75
2024/01/30 07:45:03;;;;;;;;;;;-0.40;99.90;;;;;;5056230;28;20390;-76
2024/01/30 07:47:31;;;;;;;;;;;-0.20;99.90;;;;;;5057698;28;19925;-76
2024/01/30 07:49:58;;;;;;;;;;;0.00;99.90;;;;;;5058453;28;19924;-75
2024/01/30 07:52:24;;;;;;;;;;;0.30;99.90;;;;;;5059300;28;19924;-75
2024/01/30 07:54:51;;;;;;;;;;;0.30;99.90;;;;;;5059231;28;19932;-77
2024/01/30 07:57:18;;;;;;;;;;;0.70;99.90;;;;;;5057509;28;19956;-74
2024/01/30 07:59:44;;;;;;;;;;;0.90;99.90;;;;;;5056584;28;20346;-73
2024/01/30 08:02:11;;;;;;;;;;;1.10;99.90;;;;;;5057147;28;19929;-73
2024/01/30 08:04:39;;;;;;;;;;;1.20;99.90;;;;;;5056847;28;19925;-73
2024/01/30 08:07:05;;;;;;;;;;;1.20;99.90;;;;;;5057384;28;20365;-73
2024/01/30 08:09:32;;;;;;;;;;;1.30;99.90;;;;;;5056932;28;20337;-73
2024/01/30 08:11:59;;;;;;;;;;;1.30;99.90;;;;;;5057873;28;19932;-73
2024/01/30 08:14:25;;;;;;;;;;;1.40;99.90;;;;;;5056917;28;19932;-73
2024/01/30 08:16:52;;;;;;;;;;;1.40;99.90;;;;;;5055435;28;19925;-73
2024/01/30 08:19:18;;;;;;;;;;;1.40;99.90;;;;;;5055544;28;19924;-73
2024/01/30 08:21:46;;;;;;;;;;;1.60;99.90;;;;;;5055377;28;19924;-73
2024/01/30 08:24:13;;;;;;;;;;;1.90;99.90;;;;;;5055451;28;19925;-73
2024/01/30 08:26:39;;;;;;;;;;;2.30;99.90;;;;;;5055240;28;19947;-73
2024/01/30 08:29:06;;;;;;;;;;;2.80;99.90;;;;;;5054861;28;20378;-73
2024/01/30 08:31:32;;;;;;;;;;;3.50;99.90;;;;;;5055151;28;19924;-73
2024/01/30 08:33:59;;;;;;;;;;;4.20;99.90;;;;;;5055247;28;19932;-73
2024/01/30 08:36:26;;;;;;;;;;;4.90;99.90;;;;;;5055052;28;19931;-74
2024/01/30 08:38:54;;;;;;;;;;;5.70;99.90;;;;;;5054970;28;19925;-74
2024/01/30 08:41:20;;;;;;;;;;;6.40;99.90;;;;;;5054394;28;19929;-74
2024/01/30 08:43:47;;;;;;;;;;;7.20;99.90;;;;;;5055333;28;19932;-74
2024/01/30 08:46:13;;;;;;;;;;;7.80;99.90;;;;;;5054961;28;19931;-74
2024/01/30 08:48:40;;;;;;;;;;;8.30;99.90;;;;;;5054993;28;20053;-74
2024/01/30 08:51:08;;;;;;;;;;;8.70;99.90;;;;;;5055012;28;19925;-75
2024/01/30 08:53:35;;;;;;;;;;;9.20;99.90;;;;;;5055000;28;19925;-75
2024/01/30 08:56:03;;;;;;;;;;;9.60;99.90;;;;;;5054857;28;20027;-75
2024/01/30 08:58:29;;;;;;;;;;;10.00;99.90;;;;;;5055014;28;19931;-75
2024/01/30 09:00:56;;;;;;;;;;;10.20;99.90;;;;;;5054919;28;19929;-75
2024/01/30 09:03:22;;;;;;;;;;;10.30;99.90;;;;;;5054862;28;19924;-75
2024/01/30 09:05:49;;;;;;;;;;;10.40;99.90;;;;;;5054338;28;20279;-76
2024/01/30 09:08:15;;;;;;;;;;;10.50;99.90;;;;;;5054656;28;19971;-76
2024/01/30 09:10:42;;;;;;;;;;;10.50;99.90;;;;;;5054594;28;19925;-75
2024/01/30 09:13:10;;;;;;;;;;;10.30;99.90;;;;;;5054612;28;19928;-75
2024/01/30 09:15:36;;;;;;;;;;;10.00;99.90;;;;;;5053888;28;20378;-75
2024/01/30 09:18:03;;;;;;;;;;;9.50;99.90;;;;;;5053936;28;20416;-75
2024/01/30 09:20:29;;;;;;;;;;;9.40;99.90;;;;;;5053914;28;20393;-75
2024/01/30 09:22:56;;;;;;;;;;;9.10;99.90;;;;;;5054148;28;19932;-75
2024/01/30 09:25:23;;;;;;;;;;;9.10;99.90;;;;;;5053774;28;20404;-74
2024/01/30 09:27:49;;;;;;;;;;;9.30;99.90;;;;;;5054086;28;19932;-75
2024/01/30 09:30:18;;;;;;;;;;;9.80;99.90;;;;;;5053687;28;19931;-76
2024/01/30 09:32:44;;;;;;;;;;;10.40;99.90;;;;;;5054028;28;20333;-75
2024/01/30 09:35:11;;;;;;;;;;;10.70;99.90;;;;;;5053800;28;19955;-75
2024/01/30 09:37:37;;;;;;;;;;;10.80;99.90;;;;;;5053897;28;19932;-75
2024/01/30 09:40:05;;;;;;;;;;;10.90;99.90;;;;;;5053823;28;19929;-75
2024/01/30 09:42:34;;;;;;;;;;;10.80;99.90;;;;;;5053940;28;19975;-74
2024/01/30 09:45:02;;;;;;;;;;;10.50;99.90;;;;;;5053790;28;19971;-76
2024/01/30 09:47:32;;;;;;;;;;;10.20;99.90;;;;;;5053914;28;20040;-75
2024/01/30 09:49:59;;;;;;;;;;;9.70;99.90;;;;;;5053545;28;19932;-75
2024/01/30 09:52:26;;;;;;;;;;;9.20;99.90;;;;;;5054243;28;20013;-74
2024/01/30 09:54:53;;;;;;;;;;;8.70;99.90;;;;;;5053762;28;19925;-75
2024/01/30 09:57:20;;;;;;;;;;;8.20;99.90;;;;;;5053376;28;19932;-75
2024/01/30 09:59:47;;;;;;;;;;;7.70;99.90;;;;;;5054014;28;19924;-74
2024/01/30 10:02:14;;;;;;;;;;;7.20;99.90;;;;;;5053691;28;19928;-74
2024/01/30 10:04:41;;;;;;;;;;;6.80;99.90;;;;;;5053617;28;19925;-74
2024/01/30 10:07:09;;;;;;;;;;;6.50;99.90;;;;;;5053226;28;19933;-74
2024/01/30 10:09:35;;;;;;;;;;;6.40;99.90;;;;;;5053460;28;20374;-75
2024/01/30 10:12:03;;;;;;;;;;;6.20;99.90;;;;;;5053375;28;20409;-74
2024/01/30 10:14:30;;;;;;;;;;;6.10;99.90;;;;;;5053513;28;20086;-74
2024/01/30 10:16:58;;;;;;;;;;;6.00;99.90;;;;;;5053343;28;19929;-74
2024/01/30 10:19:24;;;;;;;;;;;5.90;99.90;;;;;;5053522;28;19929;-74
2024/01/30 10:21:53;;;;;;;;;;;5.90;99.90;;;;;;5053227;28;20382;-74
2024/01/30 10:24:19;;;;;;;;;;;5.90;99.90;;;;;;5053645;28;19925;-74
2024/01/30 10:26:46;;;;;;;;;;;5.90;99.90;;;;;;5053477;28;20010;-74
2024/01/30 10:29:12;;;;;;;;;;;5.90;99.90;;;;;;5053096;28;20344;-74
2024/01/30 10:31:39;;;;;;;;;;;5.90;99.90;;;;;;5053694;28;19929;-74
2024/01/30 10:34:05;;;;;;;;;;;6.00;99.90;;;;;;5053642;28;19925;-74
2024/01/30 10:36:36;;;;;;;;;;;6.00;99.90;;;;;;5054225;28;19925;-75
2024/01/30 10:39:06;;;;;;;;;;;6.10;99.90;;;;;;5053433;28;19947;-74
2024/01/30 10:41:36;;;;;;;;;;;6.10;99.90;;;;;;5053385;28;19931;-74
2024/01/30 10:44:03;;;;;;;;;;;6.20;99.90;;;;;;5053520;28;19924;-74
2024/01/30 10:46:32;;;;;;;;;;;6.10;99.90;;;;;;5053494;28;20016;-74
2024/01/30 10:48:59;;;;;;;;;;;6.10;99.90;;;;;;5053351;28;19975;-75
2024/01/30 10:51:26;;;;;;;;;;;6.10;99.90;;;;;;5052991;28;19968;-76
2024/01/30 10:53:54;;;;;;;;;;;6.20;99.90;;;;;;5053831;28;19925;-76
2024/01/30 10:56:22;;;;;;;;;;;6.30;99.90;;;;;;5052980;28;19979;-75
2024/01/30 10:58:49;;;;;;;;;;;6.30;99.90;;;;;;5053428;28;19976;-76
2024/01/30 11:01:16;;;;;;;;;;;6.40;99.90;;;;;;5053074;28;19928;-76
2024/01/30 11:03:43;;;;;;;;;;;6.40;99.90;;;;;;5055071;28;19936;-76
2024/01/30 11:06:11;;;;;;;;;;;6.40;99.90;;;;;;5056572;28;19959;-75
2024/01/30 11:08:38;;;;;;;;;;;6.40;99.90;;;;;;5056328;28;19986;-75
2024/01/30 11:11:08;;;;;;;;;;;6.50;99.90;;;;;;5056715;28;19925;-75
2024/01/30 11:13:36;;;;;;;;;;;6.50;99.90;;;;;;5057769;28;19932;-75
2024/01/30 11:16:03;;;;;;;;;;;6.60;99.90;;;;;;5056302;28;19948;-75
2024/01/30 11:18:30;;;;;;;;;;;6.70;99.90;;;;;;5056614;28;19933;-75
2024/01/30 11:20:57;;;;;;;;;;;6.70;99.90;;;;;;5056785;28;19924;-75
2024/01/30 11:23:23;;;;;;;;;;;6.70;99.90;;;;;;5057019;28;19948;-75
2024/01/30 11:25:52;;;;;;;;;;;6.80;99.90;;;;;;5056362;28;19932;-75
2024/01/30 11:28:19;;;;;;;;;;;6.90;99.90;;;;;;5056309;28;19936;-74
2024/01/30 11:30:50;;;;;;;;;;;7.00;99.90;;;;;;5056232;28;19932;-74
2024/01/30 11:33:29;;;;;;;;;;;7.10;99.90;;;;;;5056366;28;19982;-75
2024/01/30 11:35:58;;;;;;;;;;;7.20;99.90;;;;;;5056143;28;19925;-75
2024/01/30 11:38:26;;;;;;;;;;;7.40;99.90;;;;;;5056205;28;19925;-75
2024/01/30 11:40:53;;;;;;;;;;;7.50;99.90;;;;;;5056243;28;19933;-74
2024/01/30 11:43:20;;;;;;;;;;;7.70;99.90;;;;;;5056139;28;19950;-74
2024/01/30 11:45:48;;;;;;;;;;;7.80;99.90;;;;;;5055914;28;20401;-74
2024/01/30 11:48:14;;;;;;;;;;;8.00;99.90;;;;;;5056124;28;19925;-75
2024/01/30 11:50:41;;;;;;;;;;;8.10;99.90;;;;;;5056158;28;19931;-75
2024/01/30 11:53:08;;;;;;;;;;;8.20;99.90;;;;;;5055502;28;19925;-74
2024/01/30 11:55:36;;;;;;;;;;;8.30;99.90;;;;;;5056037;28;20271;-74
2024/01/30 11:58:04;;;;;;;;;;;8.30;99.90;;;;;;5056283;28;19925;-74
2024/01/30 12:00:30;;;;;;;;;;;8.30;99.90;;;;;;5056201;28;19924;-75
2024/01/30 12:03:00;;;;;;;;;;;8.20;99.90;;;;;;5056680;28;19948;-75
2024/01/30 12:05:27;;;;;;;;;;;8.20;99.90;;;;;;5055400;28;19924;-74
2024/01/30 12:07:54;;;;;;;;;;;8.30;99.90;;;;;;5056555;28;20301;-74
2024/01/30 12:10:21;;;;;;;;;;;8.30;99.90;;;;;;5056690;28;19928;-74
2024/01/30 12:12:48;;;;;;;;;;;8.30;99.90;;;;;;5057219;28;19931;-74
2024/01/30 12:15:15;;;;;;;;;;;8.40;99.90;;;;;;5056515;28;19932;-74
2024/01/30 12:17:42;;;;;;;;;;;8.50;99.90;;;;;;5056725;28;19931;-74
2024/01/30 12:20:11;;;;;;;;;;;8.60;99.90;;;;;;5057374;28;20349;-74
2024/01/30 12:22:39;;;;;;;;;;;8.70;99.90;;;;;;5056596;28;19931;-74
2024/01/30 12:25:06;;;;;;;;;;;8.90;99.90;;;;;;5057882;28;19929;-75
2024/01/30 12:27:33;;;;;;;;;;;9.00;99.90;;;;;;5057296;28;19925;-73
2024/01/30 12:29:59;;;;;;;;;;;9.10;99.90;;;;;;5056983;28;20329;-73
2024/01/30 12:32:26;;;;;;;;;;;9.10;99.90;;;;;;5057037;28;19924;-74
2024/01/30 12:34:56;;;;;;;;;;;9.10;99.90;;;;;;5057106;28;20351;-74
2024/01/30 12:37:24;;;;;;;;;;;9.10;99.90;;;;;;5056762;28;19963;-74
2024/01/30 12:39:52;;;;;;;;;;;9.20;99.90;;;;;;5056145;28;19929;-74
2024/01/30 12:42:19;;;;;;;;;;;9.20;99.90;;;;;;5056249;28;19929;-74
2024/01/30 12:44:46;;;;;;;;;;;9.20;99.90;;;;;;5055884;28;19925;-74
2024/01/30 12:47:13;;;;;;;;;;;9.30;99.90;;;;;;5055754;28;19925;-74
2024/01/30 12:49:39;;;;;;;;;;;9.30;99.90;;;;;;5055260;28;19925;-75
2024/01/30 12:52:06;;;;;;;;;;;9.30;99.90;;;;;;5055061;28;19928;-75
2024/01/30 12:54:34;;;;;;;;;;;9.40;99.90;;;;;;5054463;28;20271;-74
2024/01/30 12:57:00;;;;;;;;;;;9.40;99.90;;;;;;5054278;28;19947;-74
2024/01/30 12:59:27;;;;;;;;;;;9.50;99.90;;;;;;5054375;28;19925;-74
2024/01/30 13:01:53;;;;;;;;;;;9.60;99.90;;;;;;5054583;28;19924;-74
2024/01/30 13:04:20;;;;;;;;;;;9.70;99.90;;;;;;5054532;28;19929;-74
2024/01/30 13:06:47;;;;;;;;;;;9.80;99.90;;;;;;5054305;28;19924;-74
2024/01/30 13:09:13;;;;;;;;;;;9.80;99.90;;;;;;5054504;28;19929;-74
2024/01/30 13:11:41;;;;;;;;;;;9.90;99.90;;;;;;5055263;28;19924;-74
2024/01/30 13:14:07;;;;;;;;;;;10.00;99.90;;;;;;5055097;28;19932;-74
2024/01/30 13:16:35;;;;;;;;;;;10.00;99.90;;;;;;5054092;28;19932;-74
2024/01/30 13:19:01;;;;;;;;;;;10.00;99.90;;;;;;5054295;28;19956;-72
2024/01/30 13:21:28;;;;;;;;;;;10.10;99.90;;;;;;5054290;28;19925;-72
2024/01/30 13:23:55;;;;;;;;;;;10.20;99.90;;;;;;5053926;28;19925;-72
2024/01/30 13:26:22;;;;;;;;;;;10.20;99.90;;;;;;5053962;28;19929;-72
2024/01/30 13:28:49;;;;;;;;;;;10.30;99.90;;;;;;5053925;28;19955;-72
2024/01/30 13:31:16;;;;;;;;;;;10.30;99.90;;;;;;5053836;28;20382;-72
2024/01/30 13:33:43;;;;;;;;;;;10.30;99.90;;;;;;5054071;28;19932;-73
2024/01/30 13:36:11;;;;;;;;;;;10.40;99.90;;;;;;5053826;28;19925;-74
2024/01/30 13:38:37;;;;;;;;;;;10.40;99.90;;;;;;5053975;28;19956;-74
2024/01/30 13:41:04;;;;;;;;;;;10.40;99.90;;;;;;5054010;28;19925;-74
2024/01/30 13:43:30;;;;;;;;;;;10.40;99.90;;;;;;5053928;28;19925;-74
2024/01/30 13:45:58;;;;;;;;;;;10.30;99.90;;;;;;5053757;28;19924;-74
2024/01/30 13:48:25;;;;;;;;;;;10.30;99.90;;;;;;5053997;28;19925;-74
2024/01/30 13:50:52;;;;;;;;;;;10.30;99.90;;;;;;5053477;28;20420;-74
2024/01/30 13:53:19;;;;;;;;;;;10.30;99.90;;;;;;5054741;28;19932;-74
2024/01/30 13:55:46;;;;;;;;;;;10.30;99.90;;;;;;5053794;28;19929;-75
2024/01/30 13:58:13;;;;;;;;;;;10.30;99.90;;;;;;5053472;28;20020;-74
2024/01/30 14:00:40;;;;;;;;;;;10.30;99.90;;;;;;5054052;28;19932;-74
2024/01/30 14:03:07;;;;;;;;;;;10.30;99.90;;;;;;5053926;28;19932;-74
2024/01/30 14:05:35;;;;;;;;;;;10.30;99.90;;;;;;5053716;28;19932;-74
2024/01/30 14:08:02;;;;;;;;;;;10.40;99.90;;;;;;5053685;28;19972;-74
2024/01/30 14:10:29;;;;;;;;;;;10.40;99.90;;;;;;5053950;28;19924;-74
2024/01/30 14:12:56;;;;;;;;;;;10.40;99.90;;;;;;5053319;28;20390;-74
2024/01/30 14:15:24;;;;;;;;;;;10.40;99.90;;;;;;5053615;28;19924;-74
2024/01/30 14:17:51;;;;;;;;;;;10.40;99.90;;;;;;5053468;28;19978;-74
2024/01/30 14:20:18;;;;;;;;;;;10.40;99.90;;;;;;5053763;28;19924;-74
2024/01/30 14:22:46;;;;;;;;;;;10.30;99.90;;;;;;5053554;28;19932;-74
2024/01/30 14:25:12;;;;;;;;;;;10.20;99.90;;;;;;5053659;28;19931;-75
2024/01/30 14:27:39;;;;;;;;;;;10.10;99.90;;;;;;5053456;28;20393;-75
2024/01/30 14:30:06;;;;;;;;;;;10.00;99.90;;;;;;5054492;28;19924;-75
2024/01/30 14:32:33;;;;;;;;;;;10.00;99.90;;;;;;5056508;28;20270;-74
2024/01/30 14:34:59;;;;;;;;;;;9.90;99.90;;;;;;5056460;28;19925;-73
2024/01/30 14:37:30;;;;;;;;;;;9.80;99.90;;;;;;5056334;28;19925;-73
2024/01/30 14:39:56;;;;;;;;;;;9.70;99.90;;;;;;5061617;28;20378;-75
2024/01/30 14:42:23;;;;;;;;;;;9.50;99.90;;;;;;5062282;28;19964;-73
2024/01/30 14:44:50;;;;;;;;;;;9.40;99.90;;;;;;5060058;28;20019;-73
2024/01/30 14:47:17;;;;;;;;;;;9.30;99.90;;;;;;5059198;28;20015;-73
2024/01/30 14:49:44;;;;;;;;;;;9.20;99.90;;;;;;5059195;28;19974;-73
2024/01/30 14:52:11;;;;;;;;;;;9.10;99.90;;;;;;5059605;28;19924;-73
2024/01/30 14:54:39;;;;;;;;;;;8.90;99.90;;;;;;5059228;28;19924;-74
2024/01/30 14:57:06;;;;;;;;;;;8.90;99.90;;;;;;5059119;28;19975;-73
2024/01/30 14:59:34;;;;;;;;;;;8.70;99.90;;;;;;5057426;28;20444;-75
2024/01/30 15:02:00;;;;;;;;;;;8.70;99.90;;;;;;5056855;28;19925;-74
2024/01/30 15:04:27;;;;;;;;;;;8.60;99.90;;;;;;5057327;28;19940;-74
2024/01/30 15:06:54;;;;;;;;;;;8.50;99.90;;;;;;5056963;28;20345;-74
2024/01/30 15:09:22;;;;;;;;;;;8.40;99.90;;;;;;5057167;28;20016;-74
2024/01/30 15:11:50;;;;;;;;;;;8.30;99.90;;;;;;5057178;28;19925;-74
2024/01/30 15:14:17;;;;;;;;;;;8.30;99.90;;;;;;5056346;28;19931;-74
2024/01/30 15:16:44;;;;;;;;;;;8.20;99.90;;;;;;5057144;28;19995;-74
2024/01/30 15:19:10;;;;;;;;;;;8.10;99.90;;;;;;5056661;28;19947;-74
2024/01/30 15:21:37;;;;;;;;;;;8.00;99.90;;;;;;5056798;28;19925;-73
2024/01/30 15:24:04;;;;;;;;;;;8.00;99.90;;;;;;5056130;28;19952;-74
2024/01/30 15:26:31;;;;;;;;;;;7.90;99.90;;;;;;5056664;28;19982;-74
2024/01/30 15:28:59;;;;;;;;;;;7.80;99.90;;;;;;5056167;28;19924;-74
2024/01/30 15:31:26;;;;;;;;;;;7.70;99.90;;;;;;5056221;28;20024;-74
2024/01/30 15:33:53;;;;;;;;;;;7.60;99.90;;;;;;5057162;28;20011;-74
2024/01/30 15:36:19;;;;;;;;;;;7.60;99.90;;;;;;5056244;28;19932;-74
2024/01/30 15:38:46;;;;;;;;;;;7.40;99.90;;;;;;5056175;28;19929;-74
2024/01/30 15:41:12;;;;;;;;;;;7.40;99.90;;;;;;5056145;28;19940;-74
2024/01/30 15:43:39;;;;;;;;;;;7.30;99.90;;;;;;5055848;28;20306;-74
2024/01/30 15:46:07;;;;;;;;;;;7.20;99.90;;;;;;5056010;28;19925;-74
2024/01/30 15:48:33;;;;;;;;;;;7.10;99.90;;;;;;5055780;28;19968;-74
2024/01/30 15:51:00;;;;;;;;;;;7.00;99.90;;;;;;5055982;28;19986;-75
2024/01/30 15:53:27;;;;;;;;;;;6.90;99.90;;;;;;5056394;28;19932;-75
2024/01/30 15:55:53;;;;;;;;;;;6.80;99.90;;;;;;5055774;28;19931;-75
2024/01/30 15:58:20;;;;;;;;;;;6.70;99.90;;;;;;5055520;28;19925;-76
2024/01/30 16:00:46;;;;;;;;;;;6.60;99.90;;;;;;5055843;28;19924;-76
2024/01/30 16:03:14;;;;;;;;;;;6.60;99.90;;;;;;5055762;28;19939;-75
2024/01/30 16:05:41;;;;;;;;;;;6.50;99.90;;;;;;5055623;28;19933;-74
2024/01/30 16:08:07;;;;;;;;;;;6.40;99.90;;;;;;5055657;28;19925;-76
2024/01/30 16:10:34;;;;;;;;;;;6.30;99.90;;;;;;5055260;28;19931;-76
2024/01/30 16:13:00;;;;;;;;;;;6.30;99.90;;;;;;5055575;28;19929;-76
2024/01/30 16:15:27;;;;;;;;;;;6.20;99.90;;;;;;5055108;28;20405;-75
2024/01/30 16:17:53;;;;;;;;;;;6.00;99.90;;;;;;5055442;28;19925;-75
2024/01/30 16:20:21;;;;;;;;;;;6.00;99.90;;;;;;5055375;28;19925;-77
2024/01/30 16:22:48;;;;;;;;;;;6.00;99.90;;;;;;5055368;28;19931;-76
2024/01/30 16:25:17;;;;;;;;;;;5.90;99.90;;;;;;5055579;28;19924;-76
2024/01/30 16:27:44;;;;;;;;;;;5.80;99.90;;;;;;5054882;28;20275;-77
2024/01/30 16:30:11;;;;;;;;;;;5.80;99.90;;;;;;5055282;28;20393;-77
2024/01/30 16:32:37;;;;;;;;;;;5.70;99.90;;;;;;5055308;28;19931;-76
2024/01/30 16:35:04;;;;;;;;;;;5.70;99.90;;;;;;5055162;28;19924;-75
2024/01/30 16:37:32;;;;;;;;;;;5.60;99.90;;;;;;5054836;28;19929;-77
2024/01/30 16:39:59;;;;;;;;;;;5.50;99.90;;;;;;5055022;28;19925;-76
2024/01/30 16:42:25;;;;;;;;;;;5.50;99.90;;;;;;5055020;28;19931;-77
2024/01/30 16:44:52;;;;;;;;;;;5.40;99.90;;;;;;5054636;28;20344;-75
2024/01/30 16:47:18;;;;;;;;;;;5.30;99.90;;;;;;5055237;28;19932;-76
2024/01/30 16:49:47;;;;;;;;;;;5.30;99.90;;;;;;5054947;28;19951;-77
2024/01/30 16:52:13;;;;;;;;;;;5.30;99.90;;;;;;5054852;28;19936;-76
2024/01/30 16:54:42;;;;;;;;;;;5.20;99.90;;;;;;5054957;28;19932;-76
2024/01/30 16:57:09;;;;;;;;;;;5.20;99.90;;;;;;5054360;28;20312;-76
2024/01/30 16:59:38;;;;;;;;;;;5.10;99.90;;;;;;5055310;28;20015;-75
2024/01/30 17:02:04;;;;;;;;;;;5.10;99.90;;;;;;5054207;28;19932;-77
2024/01/30 17:04:32;;;;;;;;;;;5.00;99.90;;;;;;5054667;28;19928;-74
2024/01/30 17:06:59;;;;;;;;;;;5.00;99.90;;;;;;5054280;28;20294;-75
2024/01/30 17:09:25;;;;;;;;;;;5.00;99.90;;;;;;5054825;28;19955;-75
2024/01/30 17:11:53;;;;;;;;;;;4.90;99.90;;;;;;5092081;22;19935;-67
2024/01/30 17:14:20;;;;;;;;;;;4.90;99.90;;;;;;5074737;28;19928;-67
2024/01/30 17:16:48;;;;;;;;;;;4.90;99.90;;;;;;5074443;28;20316;-72
2024/01/30 17:19:14;;;;;;;;;;;4.90;99.90;;;;;;5074920;28;19929;-74
2024/01/30 17:21:41;;;;;;;;;;;4.80;99.90;;;;;;5074690;28;19925;-72
2024/01/30 17:24:08;;;;;;;;;;;4.80;99.90;;;;;;5075129;28;19925;-71
2024/01/30 17:26:34;;;;;;;;;;;4.80;99.90;;;;;;5075829;28;19924;-71
2024/01/30 17:29:02;;;;;;;;;;;4.80;99.90;;;;;;5080288;28;19924;-71
2024/01/30 17:31:29;;;;;;;;;;;4.70;99.90;;;;;;5080628;28;19925;-71
2024/01/30 17:33:55;;;;;;;;;;;4.70;99.90;;;;;;5080308;28;19924;-71
2024/01/30 17:36:22;;;;;;;;;;;4.70;99.90;;;;;;5078902;28;19928;-72
2024/01/30 17:38:49;;;;;;;;;;;4.60;99.90;;;;;;5076163;28;19974;-73
2024/01/30 17:41:15;;;;;;;;;;;4.60;99.90;;;;;;5074976;28;20324;-71
2024/01/30 17:43:42;;;;;;;;;;;4.60;99.90;;;;;;5074346;28;19931;-73
2024/01/30 17:46:10;;;;;;;;;;;4.60;99.90;;;;;;5074464;28;19932;-73
2024/01/30 17:48:36;;;;;;;;;;;4.50;99.90;;;;;;5074575;28;19924;-72
2024/01/30 17:51:03;;;;;;;;;;;4.50;99.90;;;;;;5074383;28;20412;-72
2024/01/30 17:53:30;;;;;;;;;;;4.50;99.90;;;;;;5074644;28;19928;-72
2024/01/30 17:56:00;;;;;;;;;;;4.40;99.90;;;;;;5074304;28;19924;-72
2024/01/30 17:58:27;;;;;;;;;;;4.40;99.90;;;;;;5074702;28;19979;-72
2024/01/30 18:00:53;;;;;;;;;;;4.40;99.90;;;;;;5074665;28;19951;-72
2024/01/30 18:03:21;;;;;;;;;;;4.40;99.90;;;;;;5075009;28;19925;-74
2024/01/30 18:05:47;;;;;;;;;;;4.40;99.90;;;;;;5074500;28;20000;-74
2024/01/30 18:08:14;;;;;;;;;;;4.40;99.90;;;;;;5074547;28;19924;-73
2024/01/30 18:10:41;;;;;;;;;;;4.30;99.90;;;;;;5073797;28;19931;-73
2024/01/30 18:13:08;;;;;;;;;;;4.30;99.90;;;;;;5077284;28;19925;-73
2024/01/30 18:15:35;;;;;;;;;;;4.30;99.90;;;;;;5078490;28;19931;-73
2024/01/30 18:18:02;;;;;;;;;;;4.30;99.90;;;;;;5078108;28;19982;-72
2024/01/30 18:20:30;;;;;;;;;;;4.20;99.90;;;;;;5078328;28;19924;-72
2024/01/30 18:22:56;;;;;;;;;;;4.20;99.90;;;;;;5077938;28;19974;-72
2024/01/30 18:25:23;;;;;;;;;;;4.20;99.90;;;;;;5078279;28;19942;-72
2024/01/30 18:27:50;;;;;;;;;;;4.20;99.90;;;;;;5077899;28;19925;-72
2024/01/30 18:30:17;;;;;;;;;;;4.20;99.90;;;;;;5078046;28;19924;-74
2024/01/30 18:32:43;;;;;;;;;;;4.20;99.90;;;;;;5077987;28;19936;-74
2024/01/30 18:35:10;;;;;;;;;;;4.20;99.90;;;;;;5078105;28;19947;-71
2024/01/30 18:37:38;;;;;;;;;;;4.20;99.90;;;;;;5077852;28;19932;-71
2024/01/30 18:40:05;;;;;;;;;;;4.20;99.90;;;;;;5078288;28;19924;-73
2024/01/30 18:42:31;;;;;;;;;;;4.20;99.90;;;;;;5078265;28;19939;-74
2024/01/30 18:44:58;;;;;;;;;;;4.20;99.90;;;;;;5078500;28;19931;-73
2024/01/30 18:47:25;;;;;;;;;;;4.20;99.90;;;;;;5078450;28;19970;-74
2024/01/30 18:49:52;;;;;;;;;;;4.20;99.90;;;;;;5079015;28;19932;-73
2024/01/30 18:52:19;;;;;;;;;;;4.20;99.90;;;;;;5078327;28;19924;-73
2024/01/30 18:54:47;;;;;;;;;;;4.20;99.90;;;;;;5078434;28;19928;-71
2024/01/30 18:57:13;;;;;;;;;;;4.30;99.90;;;;;;5078069;28;20333;-70
2024/01/30 18:59:40;;;;;;;;;;;4.30;99.90;;;;;;5078254;28;19931;-70
2024/01/30 19:02:07;;;;;;;;;;;4.30;99.90;;;;;;5078200;28;19924;-71
2024/01/30 19:04:33;;;;;;;;;;;4.30;99.90;;;;;;5077843;28;20436;-70
2024/01/30 19:07:00;;;;;;;;;;;4.30;99.90;;;;;;5077556;28;19931;-70
2024/01/30 19:09:27;;;;;;;;;;;4.30;99.90;;;;;;5077734;28;19924;-71
2024/01/30 19:11:54;;;;;;;;;;;4.30;99.90;;;;;;5077503;28;20119;-71
2024/01/30 19:14:21;;;;;;;;;;;4.30;99.90;;;;;;5077311;28;20415;-72
2024/01/30 19:16:48;;;;;;;;;;;4.30;99.90;;;;;;5077711;28;20011;-69
2024/01/30 19:19:14;;;;;;;;;;;4.30;99.90;;;;;;5076897;28;20273;-70